Time;durP1;ratioP1;P1;durP2;ratioP2;P2;SDS_P1;SDS_P2;PMS_P1;PMS_P2;Temp;Humidity;BMP_temperature;BMP_pressure;BME280_temperature;BME280_humidity;BME280_pressure;Samples;Min_cycle;Max_cycle;Signal;HPM_P1;HPM_P2
2021/01/27 00:02:03;;;;;;;6.35;3.20;;;22.80;45.10;;;;;;5065801;28;46362;-53
2021/01/27 00:04:29;;;;;;;6.57;3.58;;;22.80;45.10;;;;;;5065437;28;45442;-53
2021/01/27 00:06:55;;;;;;;7.82;4.53;;;22.80;45.20;;;;;;5066076;28;45412;-53
2021/01/27 00:09:20;;;;;;;6.13;3.75;;;22.80;45.10;;;;;;5065868;28;45540;-54
2021/01/27 00:11:46;;;;;;;7.43;3.65;;;22.80;45.10;;;;;;5065494;28;45408;-54
2021/01/27 00:14:12;;;;;;;6.70;3.60;;;22.80;45.10;;;;;;5065886;28;45335;-53
2021/01/27 00:16:37;;;;;;;6.30;3.90;;;22.80;45.10;;;;;;5065160;28;45241;-51
2021/01/27 00:19:03;;;;;;;6.40;3.45;;;22.80;45.10;;;;;;5029263;28;45337;-53
2021/01/27 00:21:29;;;;;;;6.78;3.30;;;22.70;45.60;;;;;;5028716;28;46247;-53
2021/01/27 00:23:55;;;;;;;6.93;3.30;;;22.70;45.00;;;;;;5028503;28;45316;-52
2021/01/27 00:26:20;;;;;;;7.90;3.78;;;22.80;45.00;;;;;;5028976;28;45328;-53
2021/01/27 00:28:46;;;;;;;5.97;3.10;;;22.70;45.00;;;;;;5029194;28;45561;-54
2021/01/27 00:31:12;;;;;;;5.75;2.90;;;22.70;45.00;;;;;;5028492;28;46064;-53
2021/01/27 00:33:37;;;;;;;5.55;3.20;;;22.80;45.00;;;;;;5028413;28;45399;-53
2021/01/27 00:36:03;;;;;;;5.68;3.13;;;22.70;45.00;;;;;;5029091;28;45646;-53
2021/01/27 00:38:29;;;;;;;6.30;3.13;;;22.80;45.10;;;;;;5029112;28;45296;-52
2021/01/27 00:40:56;;;;;;;4.78;2.88;;;22.70;45.00;;;;;;5028396;28;45492;-53
2021/01/27 00:43:22;;;;;;;7.40;3.00;;;22.70;45.00;;;;;;5028770;28;45391;-53
2021/01/27 00:45:49;;;;;;;5.75;3.30;;;22.60;45.00;;;;;;5028755;28;45400;-53
2021/01/27 00:48:14;;;;;;;6.13;3.40;;;22.70;45.00;;;;;;5029012;28;45468;-53
2021/01/27 00:50:40;;;;;;;5.97;3.50;;;22.60;45.00;;;;;;5028609;28;46090;-54
2021/01/27 00:53:06;;;;;;;5.93;3.00;;;22.60;45.00;;;;;;5044893;28;45249;-55
2021/01/27 00:55:32;;;;;;;7.40;3.25;;;22.60;45.00;;;;;;5048108;28;45278;-53
2021/01/27 00:57:58;;;;;;;5.95;3.40;;;22.60;45.00;;;;;;5065847;28;45265;-52
2021/01/27 01:00:25;;;;;;;5.40;3.05;;;22.60;45.00;;;;;;5067416;28;45463;-53
2021/01/27 01:02:50;;;;;;;5.25;3.08;;;22.60;45.00;;;;;;5069962;28;45328;-53
2021/01/27 01:05:22;;;;;;;5.93;3.30;;;22.60;45.00;;;;;;5068218;28;45344;-53
2021/01/27 01:07:48;;;;;;;6.43;3.50;;;22.60;45.00;;;;;;5070260;28;45203;-53
2021/01/27 01:10:28;;;;;;;6.82;3.10;;;22.60;45.00;;;;;;5068420;28;45360;-53
2021/01/27 01:12:54;;;;;;;5.00;2.95;;;22.60;45.00;;;;;;5067889;28;45369;-53
2021/01/27 01:15:20;;;;;;;6.47;2.90;;;22.60;45.00;;;;;;5068265;28;45486;-53
2021/01/27 01:17:46;;;;;;;6.18;3.03;;;22.60;45.00;;;;;;5068330;28;45405;-52
2021/01/27 01:20:15;;;;;;;5.30;3.03;;;22.50;44.90;;;;;;5050949;28;45269;-53
2021/01/27 01:22:48;;;;;;;5.40;3.10;;;22.60;45.00;;;;;;5068221;28;45411;-53
2021/01/27 01:25:14;;;;;;;6.22;2.80;;;22.50;45.00;;;;;;5067939;28;45379;-52
2021/01/27 01:27:41;;;;;;;5.47;2.80;;;22.50;45.00;;;;;;5068705;28;45538;-53
2021/01/27 01:30:13;;;;;;;6.43;3.10;;;22.50;45.50;;;;;;5067586;28;45411;-54
2021/01/27 01:32:39;;;;;;;6.18;3.00;;;22.50;45.00;;;;;;5069303;28;45274;-52
2021/01/27 01:35:05;;;;;;;4.82;2.78;;;22.50;45.00;;;;;;5067991;28;45511;-53
2021/01/27 01:37:31;;;;;;;5.07;2.70;;;22.50;44.90;;;;;;5068007;28;45349;-52
2021/01/27 01:39:57;;;;;;;4.15;2.50;;;22.50;45.00;;;;;;5067862;28;45479;-53
2021/01/27 01:42:22;;;;;;;4.57;2.60;;;22.40;44.90;;;;;;5067949;28;45437;-53
2021/01/27 01:44:48;;;;;;;4.70;2.75;;;22.40;44.90;;;;;;5067957;28;45370;-52
2021/01/27 01:47:14;;;;;;;4.85;2.67;;;22.50;45.00;;;;;;5068605;28;45423;-52
2021/01/27 01:49:40;;;;;;;5.78;2.90;;;22.40;44.90;;;;;;5067666;28;46436;-52
2021/01/27 01:52:06;;;;;;;5.30;2.40;;;22.40;44.90;;;;;;5046179;28;45149;-52
2021/01/27 01:54:34;;;;;;;5.20;2.45;;;22.40;44.90;;;;;;5047814;28;45219;-53
2021/01/27 01:57:07;;;;;;;4.72;2.88;;;22.40;44.90;;;;;;5062853;28;45500;-52
2021/01/27 01:59:33;;;;;;;5.95;3.72;;;22.40;44.90;;;;;;5067094;28;45494;-52
2021/01/27 02:02:07;;;;;;;5.65;2.95;;;22.40;44.90;;;;;;5067690;28;45282;-52
2021/01/27 02:04:52;;;;;;;4.88;2.85;;;22.40;44.90;;;;;;5067390;28;45240;-52
2021/01/27 02:07:18;;;;;;;4.70;2.58;;;22.40;44.90;;;;;;5068163;28;45377;-52
2021/01/27 02:09:44;;;;;;;4.85;2.45;;;22.40;44.90;;;;;;5066578;28;45331;-52
2021/01/27 02:12:33;;;;;;;4.95;2.78;;;22.40;44.90;;;;;;5066074;28;45327;-52
2021/01/27 02:15:27;;;;;;;5.25;2.60;;;22.40;44.80;;;;;;5067102;28;45594;-52
2021/01/27 02:18:08;;;;;;;4.20;2.35;;;22.40;44.90;;;;;;5067648;28;45409;-52
2021/01/27 02:21:03;;;;;;;4.97;2.45;;;22.30;44.90;;;;;;5068166;28;45294;-53
2021/01/27 02:23:50;;;;;;;4.22;2.65;;;22.30;44.90;;;;;;5047448;28;45349;-53
2021/01/27 02:27:01;;;;;;;4.43;2.47;;;22.30;44.90;;;;;;5048607;28;45504;-52
2021/01/27 02:29:44;;;;;;;4.80;2.47;;;22.30;44.90;;;;;;5011202;28;45468;-53
2021/01/27 02:32:35;;;;;;;3.92;2.45;;;22.30;44.90;;;;;;5046926;28;46094;-52
2021/01/27 02:35:06;;;;;;;5.10;2.78;;;22.30;44.80;;;;;;5048438;28;45371;-52
2021/01/27 02:37:36;;;;;;;4.35;2.25;;;22.20;44.90;;;;;;5048445;28;45257;-52
2021/01/27 02:40:08;;;;;;;5.57;2.85;;;22.20;44.90;;;;;;5047194;28;45373;-53
2021/01/27 02:42:38;;;;;;;5.35;2.55;;;22.20;44.90;;;;;;5046747;28;45274;-52
2021/01/27 02:45:08;;;;;;;5.47;2.72;;;22.20;44.90;;;;;;5046650;28;45387;-52
2021/01/27 02:47:48;;;;;;;4.65;2.50;;;22.20;44.90;;;;;;5046777;28;45440;-53
2021/01/27 02:50:24;;;;;;;5.55;2.30;;;22.20;44.90;;;;;;5047275;28;45484;-53
2021/01/27 02:52:55;;;;;;;4.60;2.72;;;22.20;44.90;;;;;;5060803;28;46306;-52
2021/01/27 02:55:31;;;;;;;5.25;2.72;;;22.20;44.90;;;;;;5049983;28;45403;-52
2021/01/27 02:58:04;;;;;;;4.28;2.30;;;22.20;44.90;;;;;;5067091;28;45563;-52
2021/01/27 03:00:34;;;;;;;3.95;1.85;;;22.10;44.90;;;;;;5066652;28;45410;-52
2021/01/27 03:03:21;;;;;;;5.28;3.03;;;22.20;44.90;;;;;;5066701;28;46310;-52
2021/01/27 03:05:58;;;;;;;3.83;1.92;;;22.20;44.80;;;;;;5066195;28;45460;-52
2021/01/27 03:08:25;;;;;;;3.85;2.15;;;22.20;44.80;;;;;;5066759;28;45327;-53
2021/01/27 03:11:20;;;;;;;3.80;2.08;;;22.20;44.80;;;;;;5067081;28;45252;-53
2021/01/27 03:13:46;;;;;;;3.67;1.83;;;22.30;44.70;;;;;;5065644;28;46612;-52
2021/01/27 03:16:26;;;;;;;3.90;2.35;;;22.30;44.70;;;;;;5065813;28;45900;-53
2021/01/27 03:19:10;;;;;;;4.13;2.50;;;22.40;44.70;;;;;;5066848;28;45279;-52
2021/01/27 03:21:47;;;;;;;3.60;2.05;;;22.40;44.60;;;;;;5067125;28;45414;-52
2021/01/27 03:24:20;;;;;;;3.75;1.88;;;22.40;44.50;;;;;;5066381;28;45293;-53
2021/01/27 03:26:58;;;;;;;4.15;2.40;;;22.50;44.50;;;;;;5049750;28;45338;-52
2021/01/27 03:29:42;;;;;;;3.90;2.35;;;22.50;44.40;;;;;;5066589;28;45287;-52
2021/01/27 03:32:12;;;;;;;4.50;2.35;;;22.50;44.40;;;;;;5068297;28;45325;-52
2021/01/27 03:34:39;;;;;;;3.15;1.90;;;22.50;44.40;;;;;;5049726;28;46596;-52
2021/01/27 03:37:11;;;;;;;3.80;2.28;;;22.60;44.40;;;;;;5049266;28;45316;-53
2021/01/27 03:39:38;;;;;;;3.78;2.30;;;22.60;44.40;;;;;;5050263;28;45412;-52
2021/01/27 03:42:08;;;;;;;4.15;2.17;;;22.60;44.90;;;;;;5049980;28;45438;-54
2021/01/27 03:44:36;;;;;;;4.10;2.17;;;22.60;44.30;;;;;;5049314;28;45228;-55
2021/01/27 03:47:18;;;;;;;3.95;1.90;;;22.60;44.20;;;;;;5049516;28;45327;-53
2021/01/27 03:49:59;;;;;;;4.05;2.25;;;22.70;44.10;;;;;;5049637;28;45270;-53
2021/01/27 03:52:55;;;;;;;3.28;1.80;;;22.70;44.10;;;;;;5065902;28;45430;-53
2021/01/27 03:55:49;;;;;;;4.50;2.05;;;22.70;44.00;;;;;;5056731;28;45413;-52
2021/01/27 03:58:31;;;;;;;4.18;2.42;;;22.70;44.10;;;;;;5067221;28;45394;-52
2021/01/27 04:01:04;;;;;;;3.92;2.17;;;22.80;44.10;;;;;;5063414;28;45402;-52
2021/01/27 04:03:30;;;;;;;3.30;1.80;;;22.80;44.10;;;;;;5065267;28;45653;-52
2021/01/27 04:05:56;;;;;;;3.92;1.67;;;22.80;44.10;;;;;;5048942;28;46216;-53
2021/01/27 04:08:22;;;;;;;3.58;2.00;;;22.80;44.00;;;;;;5065542;28;45363;-55
2021/01/27 04:10:48;;;;;;;5.47;2.28;;;22.90;44.00;;;;;;5066021;28;45314;-53
2021/01/27 04:13:13;;;;;;;2.90;1.77;;;22.80;43.80;;;;;;5066186;28;45296;-53
2021/01/27 04:15:39;;;;;;;6.07;2.22;;;22.90;43.90;;;;;;5064993;28;45341;-52
2021/01/27 04:18:05;;;;;;;4.20;2.10;;;22.90;43.90;;;;;;5065559;28;45243;-53
2021/01/27 04:20:31;;;;;;;3.45;1.65;;;22.90;43.80;;;;;;5049189;28;45280;-53
2021/01/27 04:22:56;;;;;;;3.33;1.83;;;22.90;43.70;;;;;;5066072;28;45572;-53
2021/01/27 04:25:22;;;;;;;3.58;1.85;;;22.90;43.70;;;;;;5048612;28;46130;-53
2021/01/27 04:27:48;;;;;;;3.40;2.00;;;22.90;43.70;;;;;;5048779;28;45384;-53
2021/01/27 04:30:17;;;;;;;3.95;1.85;;;22.90;43.60;;;;;;5048963;28;45473;-53
2021/01/27 04:32:43;;;;;;;2.83;1.50;;;23.00;43.60;;;;;;5067157;28;45236;-53
2021/01/27 04:35:09;;;;;;;2.90;1.67;;;23.00;43.60;;;;;;5051274;28;45446;-54
2021/01/27 04:37:35;;;;;;;3.15;1.67;;;23.00;43.60;;;;;;5052127;28;45351;-52
2021/01/27 04:40:02;;;;;;;3.22;1.75;;;23.00;43.50;;;;;;5052099;28;45428;-53
2021/01/27 04:42:28;;;;;;;4.05;1.98;;;23.00;43.50;;;;;;5052838;28;45357;-54
2021/01/27 04:44:58;;;;;;;4.15;1.90;;;23.00;43.50;;;;;;5051996;28;45341;-53
2021/01/27 04:47:37;;;;;;;3.50;2.00;;;23.10;43.50;;;;;;5052177;28;45365;-53
2021/01/27 04:50:05;;;;;;;3.83;2.05;;;23.10;43.40;;;;;;5069058;28;45331;-53
2021/01/27 04:52:43;;;;;;;3.35;1.80;;;23.10;43.40;;;;;;5068479;28;45580;-53
2021/01/27 04:55:12;;;;;;;3.08;1.60;;;23.10;43.30;;;;;;5069909;28;46349;-53
2021/01/27 04:57:47;;;;;;;3.55;1.63;;;23.10;43.30;;;;;;5049438;28;45347;-54
2021/01/27 05:00:42;;;;;;;;;;;23.20;43.30;;;;;;5055798;28;45271;-52
2021/01/27 05:03:24;;;;;;;3.97;1.77;;;23.10;43.30;;;;;;5067995;28;45411;-53
2021/01/27 05:05:55;;;;;;;4.38;2.05;;;23.10;43.30;;;;;;5051466;28;46513;-53
2021/01/27 05:08:27;;;;;;;3.38;1.73;;;23.10;43.20;;;;;;5068147;28;45353;-53
2021/01/27 05:11:04;;;;;;;3.88;2.17;;;23.10;43.20;;;;;;5068899;28;45366;-53
2021/01/27 05:13:32;;;;;;;3.80;1.98;;;23.10;43.10;;;;;;5068334;28;45462;-53
2021/01/27 05:15:59;;;;;;;3.03;1.63;;;23.20;43.20;;;;;;5067893;28;46377;-53
2021/01/27 05:18:25;;;;;;;2.95;1.60;;;23.10;43.10;;;;;;5053296;28;45514;-53
2021/01/27 05:20:51;;;;;;;3.10;1.80;;;23.10;43.10;;;;;;5048092;28;45364;-53
2021/01/27 05:23:17;;;;;;;3.63;2.08;;;23.20;43.10;;;;;;5048751;28;45392;-55
2021/01/27 05:25:49;;;;;;;3.28;1.70;;;23.20;43.00;;;;;;5047824;28;45415;-53
2021/01/27 05:28:21;;;;;;;3.55;1.88;;;23.20;43.00;;;;;;5062931;28;45540;-55
2021/01/27 05:30:52;;;;;;;3.15;1.60;;;23.30;43.00;;;;;;5049045;28;45304;-58
2021/01/27 05:33:18;;;;;;;2.15;1.20;;;23.30;43.00;;;;;;5067018;28;45536;-53
2021/01/27 05:35:44;;;;;;;3.35;1.75;;;23.30;43.00;;;;;;5063640;28;45347;-53
2021/01/27 05:38:30;;;;;;;3.08;2.05;;;23.30;42.90;;;;;;5066587;28;45360;-54
2021/01/27 05:41:16;;;;;;;3.25;1.60;;;23.40;42.90;;;;;;5064579;28;45417;-53
2021/01/27 05:43:41;;;;;;;3.17;1.70;;;23.40;42.90;;;;;;5064545;28;45330;-52
2021/01/27 05:46:16;;;;;;;2.90;1.55;;;23.40;42.90;;;;;;5049036;28;46492;-52
2021/01/27 05:48:49;;;;;;;3.15;1.52;;;23.40;42.90;;;;;;5060957;28;45603;-52
2021/01/27 05:51:28;;;;;;;3.40;1.70;;;23.50;42.90;;;;;;5065551;28;45465;-53
2021/01/27 05:53:54;;;;;;;4.55;2.10;;;23.40;42.90;;;;;;5068200;28;45507;-52
2021/01/27 05:56:24;;;;;;;3.33;1.90;;;23.40;42.90;;;;;;5046490;28;45936;-52
2021/01/27 05:58:49;;;;;;;3.90;1.90;;;23.40;42.80;;;;;;5049633;28;45321;-56
2021/01/27 06:01:34;;;;;;;3.28;1.80;;;23.40;42.80;;;;;;5067523;28;45323;-53
2021/01/27 06:04:04;;;;;;;2.95;1.45;;;23.40;42.80;;;;;;5061372;28;45472;-53
2021/01/27 06:06:32;;;;;;;2.63;1.50;;;23.40;42.90;;;;;;5066125;28;46183;-55
2021/01/27 06:08:59;;;;;;;3.95;1.73;;;23.40;42.90;;;;;;5057624;28;46677;-54
2021/01/27 06:11:25;;;;;;;2.97;1.70;;;23.40;42.90;;;;;;5040119;28;45380;-53
2021/01/27 06:13:51;;;;;;;4.28;1.80;;;23.40;42.80;;;;;;5068011;28;45657;-56
2021/01/27 06:16:18;;;;;;;3.38;1.80;;;23.40;42.90;;;;;;5044736;28;45592;-54
2021/01/27 06:18:44;;;;;;;6.45;2.10;;;23.50;42.90;;;;;;5045535;28;45354;-54
2021/01/27 06:21:38;;;;;;;6.43;1.90;;;23.50;43.00;;;;;;5029374;28;45461;-51
2021/01/27 06:24:12;;;;;;;5.10;2.40;;;23.60;43.50;;;;;;5029876;28;45446;-55
2021/01/27 06:26:56;;;;;;;8.82;3.45;;;23.70;44.10;;;;;;5042405;28;46671;-55
2021/01/27 06:29:39;;;;;;;9.80;2.90;;;23.70;43.80;;;;;;5041098;28;45385;-52
2021/01/27 06:32:29;;;;;;;8.35;3.08;;;23.70;43.80;;;;;;5030516;28;45422;-53
2021/01/27 06:35:04;;;;;;;6.40;3.63;;;23.70;43.50;;;;;;5024263;28;45430;-54
2021/01/27 06:37:50;;;;;;;8.77;3.08;;;23.70;43.40;;;;;;5031754;28;45383;-55
2021/01/27 06:40:37;;;;;;;10.35;3.67;;;23.70;43.30;;;;;;5024506;28;45513;-53
2021/01/27 06:43:05;;;;;;;8.05;3.05;;;23.70;43.50;;;;;;5043284;28;45492;-54
2021/01/27 06:46:08;;;;;;;8.60;3.20;;;23.70;43.70;;;;;;5046047;28;45544;-55
2021/01/27 06:49:09;;;;;;;8.38;3.50;;;23.70;43.80;;;;;;5047467;28;45341;-53
2021/01/27 06:51:41;;;;;;;8.45;3.42;;;23.70;44.00;;;;;;5023553;28;45289;-53
2021/01/27 06:54:27;;;;;;;9.13;3.53;;;23.70;43.90;;;;;;5064618;28;45420;-53
2021/01/27 06:57:03;;;;;;;9.75;4.70;;;23.70;43.50;;;;;;5067777;28;45319;-53
2021/01/27 07:00:03;;;;;;;7.32;4.68;;;23.70;43.10;;;;;;5066699;28;45366;-54
2021/01/27 07:02:50;;;;;;;10.48;5.53;;;23.70;42.70;;;;;;5048427;28;45295;-55
2021/01/27 07:05:40;;;;;;;9.35;4.75;;;23.70;42.40;;;;;;5068072;28;45339;-54
2021/01/27 07:08:21;;;;;;;10.50;5.53;;;23.70;42.30;;;;;;5067424;28;45212;-55
2021/01/27 07:11:01;;;;;;;9.82;5.10;;;23.70;42.20;;;;;;5066439;28;45318;-53
2021/01/27 07:13:52;;;;;;;9.52;5.38;;;23.70;41.90;;;;;;5067735;28;45468;-54
2021/01/27 07:16:40;;;;;;;7.50;4.45;;;23.70;41.80;;;;;;5067580;28;45263;-53
2021/01/27 07:19:27;;;;;;;12.80;5.60;;;23.70;42.20;;;;;;5040994;28;45448;-52
2021/01/27 07:22:04;;;;;;;12.48;5.20;;;23.70;42.70;;;;;;5051755;28;45397;-52
2021/01/27 07:24:40;;;;;;;12.65;5.25;;;23.70;42.70;;;;;;5049352;28;45402;-52
2021/01/27 07:27:11;;;;;;;16.40;5.70;;;23.70;42.60;;;;;;5028693;28;45453;-52
2021/01/27 07:29:46;;;;;;;12.38;5.63;;;23.70;42.70;;;;;;5030137;28;45327;-53
2021/01/27 07:32:40;;;;;;;11.30;5.25;;;23.70;42.60;;;;;;5047113;28;46244;-52
2021/01/27 07:35:08;;;;;;;11.73;5.90;;;23.70;42.50;;;;;;5042998;28;45192;-53
2021/01/27 07:37:41;;;;;;;11.45;5.95;;;23.70;42.60;;;;;;5047176;28;45366;-52
2021/01/27 07:40:13;;;;;;;10.25;5.40;;;23.70;42.40;;;;;;5046334;28;45533;-52
2021/01/27 07:43:01;;;;;;;11.38;6.20;;;23.70;42.30;;;;;;5045804;28;46232;-51
2021/01/27 07:45:35;;;;;;;10.93;6.18;;;23.70;41.90;;;;;;5057520;28;45560;-52
2021/01/27 07:48:32;;;;;;;12.00;5.93;;;23.70;41.90;;;;;;5061516;28;45461;-52
2021/01/27 07:50:58;;;;;;;11.63;7.47;;;23.70;41.80;;;;;;5067809;28;45200;-53
2021/01/27 07:53:28;;;;;;;9.52;5.68;;;23.70;41.80;;;;;;5062244;28;46288;-54
2021/01/27 07:56:00;;;;;;;9.07;5.47;;;23.70;41.70;;;;;;5063623;28;45271;-56
2021/01/27 07:59:15;;;;;;;9.05;5.90;;;23.70;41.70;;;;;;5060090;28;45561;-57
2021/01/27 08:01:46;;;;;;;7.65;5.63;;;23.80;41.00;;;;;;5024199;28;45519;-56
2021/01/27 08:04:26;;;;;;;8.20;5.35;;;23.80;41.30;;;;;;5041397;28;46356;-60
2021/01/27 08:06:54;;;;;;;8.75;5.55;;;23.90;41.40;;;;;;5054951;28;45505;-58
2021/01/27 08:09:29;;;;;;;40.50;5.13;;;24.00;41.40;;;;;;5064782;28;45393;-59
2021/01/27 08:12:12;;;;;;;8.70;4.72;;;24.10;41.70;;;;;;5068254;28;45493;-59
2021/01/27 08:14:58;;;;;;;6.60;4.30;;;24.20;41.30;;;;;;5057487;28;45686;-61
2021/01/27 08:17:46;;;;;;;8.40;4.65;;;24.20;41.20;;;;;;5055743;28;45458;-61
2021/01/27 08:20:32;;;;;;;7.32;4.75;;;24.30;41.00;;;;;;5060190;28;45326;-57
2021/01/27 08:23:03;;;;;;;6.72;4.43;;;24.30;40.90;;;;;;5065434;28;45344;-61
2021/01/27 08:25:49;;;;;;;6.30;4.55;;;24.30;40.70;;;;;;5061964;28;46201;-60
2021/01/27 08:28:33;;;;;;;9.10;4.82;;;24.30;40.00;;;;;;5070125;28;45284;-57
2021/01/27 08:31:07;;;;;;;8.90;4.38;;;24.30;40.30;;;;;;5069406;28;45332;-57
2021/01/27 08:33:52;;;;;;;7.38;3.95;;;24.40;39.80;;;;;;5062813;28;45497;-62
2021/01/27 08:36:33;;;;;;;7.60;4.70;;;24.30;39.80;;;;;;5059026;28;46089;-64
2021/01/27 08:39:02;;;;;;;8.15;4.50;;;24.30;39.50;;;;;;5057613;28;45220;-60
2021/01/27 08:42:22;;;;;;;7.53;5.07;;;24.30;39.60;;;;;;5049910;28;45473;-59
2021/01/27 08:44:48;;;;;;;6.20;4.18;;;24.30;38.90;;;;;;5038653;28;45544;-57
2021/01/27 08:47:20;;;;;;;5.95;4.35;;;24.30;40.00;;;;;;5030315;28;45993;-59
2021/01/27 08:49:52;;;;;;;6.50;3.92;;;24.30;39.40;;;;;;5057263;28;45414;-59
2021/01/27 08:52:17;;;;;;;6.10;3.90;;;24.30;38.90;;;;;;5048436;28;45501;-61
2021/01/27 08:54:45;;;;;;;8.80;3.85;;;24.30;38.60;;;;;;5053222;28;45827;-61
2021/01/27 08:57:28;;;;;;;6.32;4.07;;;24.30;38.90;;;;;;5056500;28;45406;-59
2021/01/27 08:59:58;;;;;;;5.53;3.63;;;24.30;38.60;;;;;;5057390;28;45394;-70
2021/01/27 09:02:46;;;;;;;7.82;3.30;;;24.30;39.00;;;;;;5053889;28;45477;-66
2021/01/27 09:05:19;;;;;;;5.45;3.17;;;24.30;39.10;;;;;;5042026;28;45496;-67
2021/01/27 09:07:53;;;;;;;5.10;3.10;;;24.40;39.70;;;;;;5037040;28;45455;-64
2021/01/27 09:10:21;;;;;;;5.15;2.85;;;24.40;40.10;;;;;;5038995;28;45859;-67
2021/01/27 09:12:48;;;;;;;5.40;2.92;;;24.40;40.30;;;;;;5035816;28;46408;-64
2021/01/27 09:15:29;;;;;;;5.43;2.85;;;24.40;40.60;;;;;;5039686;28;45588;-67
2021/01/27 09:17:58;;;;;;;17.80;3.17;;;24.50;40.90;;;;;;5051585;28;46698;-60
2021/01/27 09:20:28;;;;;;;5.43;2.55;;;24.50;40.90;;;;;;5047969;28;45534;-63
2021/01/27 09:23:01;;;;;;;5.07;2.30;;;24.50;41.20;;;;;;5059207;28;45333;-66
2021/01/27 09:25:27;;;;;;;3.88;2.45;;;24.60;41.10;;;;;;5047242;28;45348;-66
2021/01/27 09:28:01;;;;;;;4.18;2.47;;;24.50;41.00;;;;;;5050142;28;45418;-64
2021/01/27 09:30:27;;;;;;;4.50;2.40;;;24.60;41.20;;;;;;5057230;28;45372;-66
2021/01/27 09:33:17;;;;;;;7.13;2.40;;;24.50;41.20;;;;;;5039055;28;45615;-63
2021/01/27 09:35:44;;;;;;;3.70;2.10;;;24.60;41.20;;;;;;5050086;28;45513;-61
2021/01/27 09:38:14;;;;;;;4.20;2.50;;;24.50;41.60;;;;;;5039896;28;46314;-57
2021/01/27 09:40:42;;;;;;;4.70;2.30;;;24.50;41.30;;;;;;5045661;28;45566;-60
2021/01/27 09:43:10;;;;;;;4.20;2.92;;;24.60;41.40;;;;;;5049210;28;45466;-60
2021/01/27 09:45:36;;;;;;;4.68;2.60;;;24.60;41.30;;;;;;5052157;28;45488;-61
2021/01/27 09:48:04;;;;;;;4.80;2.50;;;24.50;41.30;;;;;;5044795;28;46175;-60
2021/01/27 09:50:30;;;;;;;4.18;2.33;;;24.70;41.30;;;;;;5044892;28;45566;-61
2021/01/27 09:52:58;;;;;;;4.18;2.33;;;24.70;41.20;;;;;;5045018;28;45748;-60
2021/01/27 09:55:24;;;;;;;4.85;2.47;;;24.70;41.10;;;;;;5050556;28;45501;-60
2021/01/27 09:57:50;;;;;;;4.75;2.17;;;24.70;41.00;;;;;;5048909;28;46259;-60
2021/01/27 10:00:33;;;;;;;4.70;2.50;;;24.80;41.00;;;;;;5040093;28;45391;-59
2021/01/27 10:03:21;;;;;;;4.85;2.10;;;24.80;40.90;;;;;;5043806;28;45494;-56
2021/01/27 10:05:47;;;;;;;4.28;2.10;;;24.80;41.10;;;;;;5055378;28;45429;-61
2021/01/27 10:08:14;;;;;;;3.60;2.13;;;24.70;41.30;;;;;;5048212;28;45515;-58
2021/01/27 10:10:40;;;;;;;5.65;2.40;;;24.70;41.40;;;;;;5058837;28;45484;-62
2021/01/27 10:13:06;;;;;;;3.20;1.70;;;24.80;41.30;;;;;;5054751;28;45407;-59
2021/01/27 10:15:32;;;;;;;4.30;2.10;;;24.90;41.20;;;;;;5038124;28;45502;-62
2021/01/27 10:18:17;;;;;;;5.68;2.10;;;24.90;41.10;;;;;;5045167;28;45505;-60
2021/01/27 10:20:43;;;;;;;3.95;2.08;;;25.00;41.80;;;;;;5051313;28;45667;-57
2021/01/27 10:23:11;;;;;;;6.10;2.53;;;25.00;41.00;;;;;;5046096;28;45743;-60
2021/01/27 10:25:37;;;;;;;4.38;2.08;;;25.00;40.90;;;;;;5050091;28;45703;-58
2021/01/27 10:28:10;;;;;;;4.00;2.33;;;25.10;40.90;;;;;;5050777;28;45573;-55
2021/01/27 10:30:54;;;;;;;4.65;2.38;;;25.10;40.80;;;;;;5056110;28;45367;-58
2021/01/27 10:33:29;;;;;;;3.00;1.90;;;25.00;40.80;;;;;;5058709;28;45431;-58
2021/01/27 10:35:55;;;;;;;3.28;1.95;;;24.90;41.00;;;;;;5051880;28;45555;-57
2021/01/27 10:38:22;;;;;;;4.45;2.22;;;24.80;41.20;;;;;;5045173;28;46609;-58
2021/01/27 10:41:09;;;;;;;4.53;2.28;;;24.70;41.30;;;;;;5062595;28;45322;-58
2021/01/27 10:43:35;;;;;;;8.93;3.30;;;24.70;41.40;;;;;;5062133;28;45711;-58
2021/01/27 10:46:00;;;;;;;13.88;2.70;;;24.70;41.60;;;;;;5048727;28;45545;-59
2021/01/27 10:48:27;;;;;;;7.32;2.75;;;24.60;41.80;;;;;;5045693;28;46204;-58
2021/01/27 10:51:07;;;;;;;8.10;2.20;;;24.50;42.00;;;;;;5048973;28;45407;-59
2021/01/27 10:53:42;;;;;;;4.70;2.20;;;24.50;42.50;;;;;;5064363;28;45426;-59
2021/01/27 10:56:07;;;;;;;11.45;2.83;;;24.40;42.90;;;;;;5067546;28;45502;-59
2021/01/27 10:58:33;;;;;;;5.32;2.30;;;24.30;43.10;;;;;;5042045;28;45585;-59
2021/01/27 11:00:59;;;;;;;6.13;3.15;;;24.30;43.40;;;;;;5049705;28;45323;-57
2021/01/27 11:03:24;;;;;;;9.30;2.80;;;24.20;43.70;;;;;;5049026;28;45653;-56
2021/01/27 11:05:50;;;;;;;4.28;2.28;;;24.20;43.90;;;;;;5050262;28;45434;-58
2021/01/27 11:08:24;;;;;;;4.65;2.20;;;24.30;43.90;;;;;;5048807;28;45596;-56
2021/01/27 11:10:50;;;;;;;7.82;2.83;;;24.20;44.30;;;;;;5049495;28;45427;-58
2021/01/27 11:13:16;;;;;;;11.07;2.45;;;24.10;44.30;;;;;;5060992;28;45760;-59
2021/01/27 11:15:41;;;;;;;6.63;2.22;;;24.10;44.30;;;;;;5046500;28;45520;-59
2021/01/27 11:18:07;;;;;;;4.00;1.92;;;24.10;44.40;;;;;;5058406;28;45549;-58
2021/01/27 11:20:34;;;;;;;4.70;2.13;;;24.10;44.70;;;;;;5043709;28;45523;-59
2021/01/27 11:22:59;;;;;;;4.80;2.58;;;24.00;44.70;;;;;;5049359;28;45363;-57
2021/01/27 11:25:26;;;;;;;6.63;2.75;;;24.00;44.60;;;;;;5045624;28;45317;-57
2021/01/27 11:27:52;;;;;;;5.20;1.85;;;24.10;44.70;;;;;;5046027;28;46180;-56
2021/01/27 11:30:20;;;;;;;3.95;1.90;;;24.00;44.40;;;;;;5045967;28;45260;-57
2021/01/27 11:32:46;;;;;;;7.15;1.95;;;24.00;44.50;;;;;;5054376;28;45405;-56
2021/01/27 11:35:12;;;;;;;5.25;2.28;;;24.00;44.50;;;;;;5056983;28;45647;-60
2021/01/27 11:37:38;;;;;;;5.80;1.92;;;24.00;44.50;;;;;;5058792;28;45672;-59
2021/01/27 11:40:05;;;;;;;6.10;2.20;;;24.10;44.50;;;;;;5038654;28;45379;-59
2021/01/27 11:42:30;;;;;;;5.88;2.50;;;24.00;44.70;;;;;;5046791;28;45422;-59
2021/01/27 11:44:56;;;;;;;4.63;2.15;;;23.90;44.60;;;;;;5045342;28;45676;-59
2021/01/27 11:47:22;;;;;;;6.15;2.55;;;23.90;44.60;;;;;;5044187;28;45428;-58
2021/01/27 11:49:49;;;;;;;8.13;2.60;;;23.90;44.60;;;;;;5044508;28;45446;-62
2021/01/27 11:52:15;;;;;;;4.50;2.45;;;24.00;44.40;;;;;;5044032;28;45435;-61
2021/01/27 11:54:41;;;;;;;3.58;2.10;;;24.20;44.10;;;;;;5043849;28;45578;-61
2021/01/27 11:57:07;;;;;;;2.95;1.67;;;24.30;43.70;;;;;;5038213;28;46394;-59
2021/01/27 11:59:34;;;;;;;3.03;1.70;;;24.40;43.50;;;;;;5044061;28;45454;-61
2021/01/27 12:02:00;;;;;;;3.97;2.00;;;24.50;43.30;;;;;;5043403;28;46347;-60
2021/01/27 12:04:26;;;;;;;3.92;1.48;;;24.60;43.20;;;;;;5040020;28;45616;-59
2021/01/27 12:06:52;;;;;;;4.47;2.35;;;24.60;43.10;;;;;;5047102;28;45642;-60
2021/01/27 12:09:17;;;;;;;10.55;2.97;;;24.60;42.90;;;;;;5043951;28;45439;-61
2021/01/27 12:11:43;;;;;;;3.38;1.70;;;24.70;42.80;;;;;;5043873;28;45574;-60
2021/01/27 12:14:09;;;;;;;5.15;1.88;;;24.40;43.30;;;;;;5059561;28;45697;-58
2021/01/27 12:16:35;;;;;;;5.50;1.60;;;24.30;43.20;;;;;;5042054;28;46418;-59
2021/01/27 12:19:00;;;;;;;3.35;1.63;;;24.30;43.40;;;;;;5044447;28;45462;-58
2021/01/27 12:21:26;;;;;;;3.83;1.88;;;24.30;43.40;;;;;;5037950;28;45313;-61
2021/01/27 12:23:52;;;;;;;4.20;1.70;;;24.30;43.60;;;;;;5042273;28;45457;-60
2021/01/27 12:26:17;;;;;;;4.40;2.13;;;24.30;43.50;;;;;;5031010;28;45463;-60
2021/01/27 12:28:44;;;;;;;4.32;1.88;;;24.40;43.60;;;;;;5041596;28;45497;-60
2021/01/27 12:31:11;;;;;;;5.50;2.22;;;24.40;43.50;;;;;;5032784;28;45622;-60
2021/01/27 12:33:37;;;;;;;4.47;2.08;;;24.40;43.50;;;;;;5045056;28;45836;-59
2021/01/27 12:36:03;;;;;;;3.67;1.77;;;24.50;43.50;;;;;;5052099;28;45503;-60
2021/01/27 12:38:29;;;;;;;3.65;1.73;;;24.50;43.30;;;;;;5036759;28;45473;-59
2021/01/27 12:40:55;;;;;;;4.13;1.67;;;24.50;43.20;;;;;;5044844;28;45371;-62
2021/01/27 12:43:21;;;;;;;3.35;1.77;;;24.50;43.10;;;;;;5046169;28;45747;-61
2021/01/27 12:45:47;;;;;;;3.40;1.73;;;24.50;43.10;;;;;;5042294;28;46447;-61
2021/01/27 12:48:12;;;;;;;5.50;1.92;;;24.50;43.10;;;;;;5039300;28;45372;-62
2021/01/27 12:50:38;;;;;;;6.78;1.70;;;24.40;43.20;;;;;;5035598;28;45332;-58
2021/01/27 12:53:04;;;;;;;3.97;1.48;;;24.40;43.50;;;;;;5046608;28;45537;-59
2021/01/27 12:55:29;;;;;;;3.63;2.00;;;24.20;43.60;;;;;;5045957;28;46285;-64
2021/01/27 12:57:56;;;;;;;5.82;1.83;;;24.10;43.00;;;;;;5036952;28;45474;-58
2021/01/27 13:00:23;;;;;;;3.05;1.88;;;24.10;43.10;;;;;;5038349;28;45379;-59
2021/01/27 13:02:50;;;;;;;4.07;1.85;;;24.00;43.50;;;;;;5060594;28;45562;-59
2021/01/27 13:05:16;;;;;;;3.05;1.38;;;23.90;43.50;;;;;;5045078;28;46199;-59
2021/01/27 13:07:42;;;;;;;2.92;2.00;;;23.90;43.60;;;;;;5045751;28;45412;-64
2021/01/27 13:10:08;;;;;;;3.90;1.88;;;23.90;43.70;;;;;;5062253;28;45339;-60
2021/01/27 13:12:38;;;;;;;5.00;2.08;;;23.90;43.70;;;;;;5047355;28;45473;-56